• Join FlightAware (Why Join?)
  • Login
  • US Flag GB Flag 
13:36 EDT


 

Airport Tracker/Info


-or-


 

Live Flight TrackerFlight Track Log ✈ AWI3551 ✈ 11-May-2013 ✈ KALB - KDCA

Flight Track Log - Related Links

Times and Time Zones

All times are in EDT time to prevent confusion due to time zone crossing. See the AWI3551 flight status page for this flight to view local times or setup timezone preferences in your user account.

Time Position Orientation Groundspeed Altitude Reporting Facility
EDT Latitude Longitude Course Direction KTS MPH feet Rate Location/Type
08:19 42.7236 -73.8081 134° Southeast 130 150 1,500  Level Boston Center
08:20 42.7086 -73.8417 239° Southwest 191 220 2,700 2,460 Climbing Boston Center
08:21 42.5258 -74.0002 171° South  Level Estimated
08:21 42.7658 -73.9192 315° West 218 251 6,700  Level Boston Center
08:22 42.4758 -73.9005 124° Southeast  Level FlightAware Approximate
08:22 42.7836 -73.9903 289° West 212 244 9,300  Level Boston Center
08:23 42.4024 -73.9684 170° South  Level Estimated
08:23 42.7681 -74.0664 254° West 198 228 11,700  Level Boston Center
08:24 42.3409 -73.8815 134° Southeast  Level FlightAware Approximate
08:24 42.7361 -74.1219 232° Southwest 205 236 14,200  Level Boston Center
08:25 42.6953 -74.1972 234° Southwest 228 262 16,600 2,100 Climbing Boston Center
08:26 42.6469 -74.2297 206° Southwest 220 253 18,500 1,620 Climbing Boston Center
08:27 42.5706 -74.1825 156° South 238 274 19,900 1,020 Climbing Boston Center
08:28 42.4900 -74.1211 151° Southeast 282 325 20,600 840 Climbing Boston Center
08:29 42.3992 -74.0594 153° Southeast 323 372 21,600 1,140 Climbing Boston Center
08:30 42.3106 -73.9956 152° Southeast 349 402 22,900 960 Climbing Boston Center
08:31 42.2178 -73.9258 151° Southeast 368 423 23,600 960 Climbing Boston Center
08:32 42.1222 -73.8872 163° South 373 429 24,900 1,080 Climbing Boston Center
08:33 42.0258 -73.9242 196° South 344 396 25,800 600 Climbing Boston Center
08:34 41.9256 -73.9608 195° South 357 411 26,200 420 Climbing Boston Center
08:36 41.7392 -74.0347 196° South 364 419 27,100 480 Climbing New York Center
08:37 41.6339 -74.0767 197° South 386 444 27,600 420 Climbing New York Center
08:38 41.5328 -74.1133 195° South 386 444 28,000 180 Climbing New York Center
08:39 41.4233 -74.1575 197° South 391 450 28,000  Level New York Center
08:40 41.3158 -74.1992 196° South 398 458 28,000  Level New York Center
08:41 41.2128 -74.2353 195° South 413 475 28,000  Level New York Center
08:42 41.1056 -74.2736 195° South 413 475 28,000  Level New York Center
08:43 41.0042 -74.3153 197° South 401 461 28,000  Level New York Center
08:44 40.9008 -74.3564 197° South 394 453 28,000  Level New York Center
08:45 40.7997 -74.3950 196° South 383 441 28,000 -60 Level New York Center
08:46 40.7364 -74.4903 229° Southwest 360 414 27,900 -420 Descending New York Center
08:47 40.6969 -74.6167 248° West 348 400 27,200 -900 Descending New York Center
08:48 40.6331 -74.7169 230° Southwest 360 414 26,200 -1,020 Descending New York Center
08:49 40.5611 -74.8111 225° Southwest 367 422 25,200 -600 Descending New York Center
08:50 40.4892 -74.9081 226° Southwest 372 428 25,000 -300 Descending New York Center
08:51 40.4061 -75.0175 225° Southwest 383 441 24,600 -720 Descending New York Center
08:52 40.3339 -75.1111 225° Southwest 378 435 23,600 -1,020 Descending New York Center
08:53 40.2636 -75.2072 226° Southwest 378 435 22,600 -840 Descending New York Center
08:54 40.1933 -75.3006 225° Southwest 373 429 22,000 -300 Descending New York Center
08:55 40.1292 -75.3942 228° Southwest 367 422 22,000  Level New York Center
08:56 40.0669 -75.4931 231° Southwest 362 417 22,000  Level New York Center
08:57 40.0047 -75.5892 230° Southwest 357 411 22,000  Level New York Center
08:58 39.9447 -75.6797 229° Southwest 347 399 22,000  Level New York Center
08:59 39.8844 -75.7703 229° Southwest 342 394 22,000  Level New York Center
09:00 39.8242 -75.8633 230° Southwest 342 394 22,000 -540 Level New York Center
09:01 39.7597 -75.9558 228° Southwest 347 399 21,000 -1,320 Descending New York Center
09:02 39.7017 -76.0461 230° Southwest 347 399 19,400 -1,620 Descending New York Center
09:03 39.6436 -76.1308 228° Southwest 331 381 17,800 -1,740 Descending New York Center
09:05 39.5500 -76.2667 228° Southwest 304 350 14,900 -1,980 Descending Potomac TRACON
09:06 39.5000 -76.3500 232° Southwest 295 339 12,700 -2,160 Descending Potomac TRACON
09:07 39.4333 -76.4333 224° Southwest 290 334 10,600 -1,380 Descending Potomac TRACON
09:08 39.3833 -76.4833 218° Southwest 263 303 10,000 -300 Descending Potomac TRACON
09:09 39.3167 -76.5333 210° Southwest 254 292 10,000  Level Potomac TRACON
09:10 39.2667 -76.5833 218° Southwest 248 285 10,000  Level Potomac TRACON
09:11 39.2167 -76.6333 218° Southwest 216 249 10,000  Level Potomac TRACON
09:12 39.1667 -76.6667 207° Southwest 214 246 10,000  Level Potomac TRACON
09:12 39.1333 -76.7167 229° Southwest 212 244 10,000  Level Potomac TRACON
09:13 39.0833 -76.7667 218° Southwest 206 237 10,000  Level Potomac TRACON
09:14 39.0333 -76.8167 218° Southwest 214 246 10,000 -240 Level Potomac TRACON
09:15 39.0000 -76.8667 229° Southwest 212 244 9,500 -900 Descending Potomac TRACON
09:16 38.9667 -76.9333 237° Southwest 208 239 8,200 -840 Descending Potomac TRACON
09:17 38.9667 -77.0000 270° West 204 235 8,000 -720 Descending Potomac TRACON
09:18 39.0000 -77.0667 303° West 223 257 6,900 -1,200 Descending Potomac TRACON
09:19 39.0500 -77.1167 322° Northwest 221 254 5,600 -960 Descending Potomac TRACON
09:20 39.0833 -77.1667 311° West 212 244 5,000 -540 Descending Potomac TRACON
09:21 39.0833 -77.2333 270° West 194 223 4,600 -900 Descending Potomac TRACON
09:22 39.0500 -77.2667 218° Southwest 216 249 3,300 -900 Descending Potomac TRACON
09:23 39.0000 -77.2167 142° Southeast 197 227 3,000 -300 Descending Potomac TRACON